createdAt,value
2018-03-24T00:01:12.540Z,36.63
2018-03-24T00:03:45.706Z,37.87
2018-03-24T00:06:19.214Z,35.47
2018-03-24T00:08:51.722Z,35.83
2018-03-24T00:11:24.125Z,37.37
2018-03-24T00:13:56.734Z,40.73
2018-03-24T00:16:29.969Z,40.03
2018-03-24T00:19:02.381Z,37.47
2018-03-24T00:21:34.990Z,36.03
2018-03-24T00:24:08.795Z,39.03
2018-03-24T00:26:41.256Z,37.20
2018-03-24T00:29:13.798Z,38.50
2018-03-24T00:31:46.458Z,36.87
2018-03-24T00:34:18.875Z,35.57
2018-03-24T00:36:51.412Z,36.70
2018-03-24T00:39:23.990Z,36.10
2018-03-24T00:41:57.232Z,35.43
2018-03-24T00:44:29.663Z,36.27
2018-03-24T00:47:02.672Z,34.90
2018-03-24T00:49:35.353Z,36.83
2018-03-24T00:52:07.874Z,34.93
2018-03-24T00:54:40.393Z,33.33
2018-03-24T00:57:13.105Z,36.40
2018-03-24T00:59:45.727Z,34.43
2018-03-24T01:02:18.120Z,37.87
2018-03-24T01:04:51.393Z,35.70
2018-03-24T01:07:24.807Z,36.53
2018-03-24T01:09:57.963Z,36.63
2018-03-24T01:12:30.388Z,37.20
2018-03-24T01:15:02.930Z,35.03
2018-03-24T01:17:35.530Z,35.37
2018-03-24T01:20:07.972Z,34.63
2018-03-24T01:22:40.540Z,34.17
2018-03-24T01:25:13.299Z,34.87
2018-03-24T01:27:45.820Z,31.30
2018-03-24T01:30:19.062Z,29.90
2018-03-24T01:32:52.088Z,32.77
2018-03-24T01:35:26.150Z,32.47
2018-03-24T01:37:58.572Z,37.33
2018-03-24T01:40:31.038Z,35.27
2018-03-24T01:43:03.509Z,32.47
2018-03-24T01:45:35.908Z,31.77
2018-03-24T01:48:08.368Z,30.67
2018-03-24T01:50:40.968Z,29.87
2018-03-24T01:53:13.453Z,29.20
2018-03-24T01:55:46.644Z,30.07
2018-03-24T01:58:19.129Z,30.53
2018-03-24T02:00:51.699Z,29.13
2018-03-24T02:03:24.281Z,29.07
2018-03-24T02:05:56.845Z,32.53
2018-03-24T02:08:29.238Z,27.30
2018-03-24T02:11:01.840Z,27.60
2018-03-24T02:13:34.364Z,30.13
2018-03-24T02:16:06.740Z,28.60
2018-03-24T02:18:39.259Z,28.80
2018-03-24T02:21:11.864Z,27.07
2018-03-24T02:23:44.563Z,26.97
2018-03-24T02:26:17.170Z,25.73
2018-03-24T02:28:49.603Z,26.00
2018-03-24T02:31:22.737Z,27.70
2018-03-24T02:33:55.229Z,26.83
2018-03-24T02:36:27.765Z,25.07
2018-03-24T02:39:00.390Z,24.87
2018-03-24T02:41:33.618Z,30.77
2018-03-24T02:44:06.126Z,26.00
2018-03-24T02:46:39.238Z,27.60
2018-03-24T02:49:12.468Z,26.10
2018-03-24T02:51:45.769Z,25.77
2018-03-24T02:54:18.389Z,24.67
2018-03-24T02:56:51.673Z,27.07
2018-03-24T02:59:24.197Z,26.33
2018-03-24T03:01:57.530Z,26.23
2018-03-24T03:04:30.536Z,26.07
2018-03-24T03:07:03.103Z,24.83
2018-03-24T03:09:35.837Z,25.60
2018-03-24T03:12:09.058Z,31.60
2018-03-24T03:14:42.974Z,28.87
2018-03-24T03:17:15.688Z,27.10
2018-03-24T03:19:49.237Z,26.37
2018-03-24T03:22:21.723Z,26.87
2018-03-24T03:24:54.117Z,28.67
2018-03-24T03:27:26.717Z,27.93
2018-03-24T03:29:59.986Z,25.10
2018-03-24T03:32:32.546Z,27.70
2018-03-24T03:35:05.638Z,27.93
2018-03-24T03:37:38.223Z,28.60
2018-03-24T03:40:10.700Z,27.40
2018-03-24T03:42:43.105Z,27.53
2018-03-24T03:45:15.924Z,28.93
2018-03-24T03:47:49.045Z,33.83
2018-03-24T03:50:21.466Z,29.60
2018-03-24T03:52:54.204Z,32.77
2018-03-24T03:55:26.979Z,34.50
2018-03-24T03:57:59.585Z,30.13
2018-03-24T04:00:31.994Z,32.57
2018-03-24T04:03:05.187Z,30.73
2018-03-24T04:05:37.803Z,29.97
2018-03-24T04:08:10.979Z,30.57
2018-03-24T04:10:44.177Z,29.33
2018-03-24T04:13:16.758Z,30.47
2018-03-24T04:15:50.107Z,34.17
2018-03-24T04:18:22.713Z,31.17
2018-03-24T04:20:55.153Z,31.67
2018-03-24T04:23:27.680Z,31.07
2018-03-24T04:26:00.264Z,32.80
2018-03-24T04:28:32.869Z,37.77
2018-03-24T04:31:05.526Z,29.63
2018-03-24T04:33:38.264Z,31.30
2018-03-24T04:36:10.798Z,32.30
2018-03-24T04:38:43.923Z,29.70
2018-03-24T04:41:16.495Z,31.23
2018-03-24T04:43:49.119Z,28.70
2018-03-24T04:46:21.763Z,29.50
2018-03-24T04:48:55.149Z,29.43
2018-03-24T04:51:27.833Z,31.77
2018-03-24T04:54:01.085Z,28.83
2018-03-24T04:56:33.694Z,29.83
2018-03-24T04:59:06.007Z,32.43
2018-03-24T05:01:38.584Z,30.03
2018-03-24T05:04:11.089Z,30.80
2018-03-24T05:06:46.065Z,28.10
2018-03-24T05:09:18.526Z,34.57
2018-03-24T05:11:51.063Z,30.90
2018-03-24T05:14:23.627Z,36.73
2018-03-24T05:16:56.202Z,27.67
2018-03-24T05:19:28.876Z,36.07
2018-03-24T05:22:01.968Z,35.33
2018-03-24T05:24:34.390Z,30.27
2018-03-24T05:27:06.985Z,37.37
2018-03-24T05:29:39.590Z,31.07
2018-03-24T05:32:12.172Z,38.13
2018-03-24T05:34:44.733Z,37.77
2018-03-24T05:37:18.009Z,36.27
2018-03-24T05:39:50.670Z,34.57
2018-03-24T05:42:23.244Z,38.23
2018-03-24T05:44:55.747Z,37.87
2018-03-24T05:47:28.353Z,38.13
2018-03-24T05:50:00.719Z,37.93
2018-03-24T05:52:33.132Z,31.33
2018-03-24T05:55:05.658Z,37.00
2018-03-24T05:57:38.038Z,34.73
2018-03-24T06:00:10.612Z,29.33
2018-03-24T06:02:43.985Z,31.17
2018-03-24T06:05:17.974Z,32.13
2018-03-24T06:07:51.289Z,35.67
2018-03-24T06:10:26.119Z,25.40
2018-03-24T06:12:59.604Z,31.30
2018-03-24T06:15:32.019Z,31.43
2018-03-24T06:18:04.789Z,30.07
2018-03-24T06:20:37.273Z,28.43
2018-03-24T06:23:09.926Z,29.57
2018-03-24T06:25:42.447Z,33.10
2018-03-24T06:28:15.060Z,30.73
2018-03-24T06:31:03.271Z,30.30
2018-03-24T06:33:35.718Z,29.37
2018-03-24T06:36:09.114Z,35.33
2018-03-24T06:38:41.527Z,31.57
2018-03-24T06:41:13.930Z,32.57
2018-03-24T06:43:47.087Z,35.37
2018-03-24T06:46:19.717Z,32.47
2018-03-24T06:48:52.918Z,34.07
2018-03-24T06:51:25.370Z,33.33
2018-03-24T06:53:58.335Z,34.90
2018-03-24T06:56:31.485Z,32.93
2018-03-24T06:59:03.945Z,33.83
2018-03-24T07:01:37.067Z,33.73
2018-03-24T07:04:11.639Z,31.63
2018-03-24T07:06:44.031Z,31.37
2018-03-24T07:09:16.622Z,35.90
2018-03-24T07:11:49.064Z,33.00
2018-03-24T07:14:21.477Z,31.60
2018-03-24T07:16:53.968Z,35.33
2018-03-24T07:19:27.328Z,36.47
2018-03-24T07:22:00.297Z,30.80
2018-03-24T07:24:32.887Z,30.63
2018-03-24T07:27:05.330Z,31.73
2018-03-24T07:29:38.848Z,30.50
2018-03-24T07:32:11.215Z,31.53
2018-03-24T07:34:43.648Z,30.17
2018-03-24T07:37:16.095Z,33.47
2018-03-24T07:39:49.559Z,35.40
2018-03-24T07:42:21.968Z,30.83
2018-03-24T07:44:54.448Z,34.57
2018-03-24T07:47:26.950Z,30.80
2018-03-24T07:50:00.105Z,33.43
2018-03-24T07:52:32.609Z,31.73
2018-03-24T07:55:05.766Z,32.00
2018-03-24T07:57:38.220Z,34.40
2018-03-24T08:00:10.701Z,30.37
2018-03-24T08:02:44.163Z,32.10
2018-03-24T08:05:16.790Z,31.40
2018-03-24T08:07:49.323Z,28.73
2018-03-24T08:10:22.278Z,34.10
2018-03-24T08:12:55.436Z,34.23
2018-03-24T08:15:28.101Z,29.57
2018-03-24T08:18:00.510Z,29.83
2018-03-24T08:20:33.635Z,29.93
2018-03-24T08:23:06.181Z,33.97
2018-03-24T08:25:39.648Z,36.03
2018-03-24T08:28:12.251Z,32.17
2018-03-24T08:30:44.700Z,33.27
2018-03-24T08:33:18.085Z,27.73
2018-03-24T08:35:51.375Z,31.03
2018-03-24T08:38:23.917Z,34.07
2018-03-24T08:40:56.573Z,26.80
2018-03-24T08:43:29.188Z,28.63
2018-03-24T08:46:02.389Z,26.77
2018-03-24T08:48:35.036Z,24.87
2018-03-24T08:51:07.601Z,28.80
2018-03-24T08:53:41.269Z,27.77
2018-03-24T08:56:13.633Z,30.67
2018-03-24T08:58:46.075Z,28.10
2018-03-24T09:01:19.533Z,27.17
2018-03-24T09:03:52.005Z,28.27
2018-03-24T09:06:24.404Z,28.73
2018-03-24T09:08:56.973Z,28.17
2018-03-24T09:11:29.545Z,29.20
2018-03-24T09:14:02.334Z,28.93
2018-03-24T09:16:35.495Z,25.47
2018-03-24T09:19:07.993Z,25.20
2018-03-24T09:21:41.356Z,30.13
2018-03-24T09:24:14.543Z,26.60
2018-03-24T09:26:47.254Z,29.67
2018-03-24T09:29:19.615Z,29.77
2018-03-24T09:31:52.063Z,29.40
2018-03-24T09:34:25.198Z,30.57
2018-03-24T09:36:57.719Z,30.50
2018-03-24T09:39:30.081Z,33.00
2018-03-24T09:42:02.831Z,29.40
2018-03-24T09:44:35.336Z,26.87
2018-03-24T09:47:08.289Z,29.03
2018-03-24T09:49:40.996Z,30.60
2018-03-24T09:52:13.414Z,30.70
2018-03-24T09:54:45.795Z,31.47
2018-03-24T09:57:18.214Z,30.07
2018-03-24T09:59:50.855Z,27.10
2018-03-24T10:02:24.060Z,26.27
2018-03-24T10:04:56.563Z,29.97
2018-03-24T10:07:29.281Z,31.37
2018-03-24T10:10:02.059Z,28.17
2018-03-24T10:12:34.664Z,29.80
2018-03-24T10:15:06.971Z,27.63
2018-03-24T10:17:39.656Z,28.23
2018-03-24T10:20:12.164Z,28.67
2018-03-24T10:22:57.144Z,26.20
2018-03-24T10:25:29.891Z,25.53
2018-03-24T10:28:02.301Z,27.13
2018-03-24T10:30:34.877Z,26.73
2018-03-24T10:33:07.633Z,27.70
2018-03-24T10:35:40.130Z,29.00
2018-03-24T10:38:12.864Z,28.73
2018-03-24T10:40:45.449Z,28.53
2018-03-24T10:43:24.036Z,30.10
2018-03-24T10:45:56.739Z,27.93
2018-03-24T10:48:29.211Z,30.03
2018-03-24T10:51:02.939Z,32.17
2018-03-24T10:53:35.408Z,29.47
2018-03-24T10:56:08.260Z,30.17
2018-03-24T10:58:40.551Z,31.37
2018-03-24T11:01:13.045Z,28.90
2018-03-24T11:03:46.434Z,28.07
2018-03-24T11:06:19.008Z,28.30
2018-03-24T11:08:51.899Z,26.60
2018-03-24T11:11:24.533Z,26.67
2018-03-24T11:13:57.045Z,28.17
2018-03-24T11:16:30.313Z,27.33
2018-03-24T11:19:02.711Z,26.27
2018-03-24T11:21:35.107Z,26.50
2018-03-24T11:24:07.786Z,25.87
2018-03-24T11:26:40.244Z,25.67
2018-03-24T11:29:12.856Z,26.13
2018-03-24T11:31:45.371Z,23.97
2018-03-24T11:34:18.219Z,24.90
2018-03-24T11:36:51.451Z,22.97
2018-03-24T11:39:24.738Z,20.93
2018-03-24T11:41:57.144Z,24.53
2018-03-24T11:44:30.034Z,22.93
2018-03-24T11:47:02.826Z,22.73
2018-03-24T11:49:35.335Z,18.83
2018-03-24T11:52:08.644Z,19.37
2018-03-24T11:54:44.014Z,21.57
2018-03-24T11:57:16.428Z,20.80
2018-03-24T11:59:48.773Z,20.17
2018-03-24T12:02:22.050Z,21.63
2018-03-24T12:04:55.166Z,20.93
2018-03-24T12:07:28.349Z,20.13
2018-03-24T12:10:01.080Z,18.40
2018-03-24T12:12:33.689Z,20.57
2018-03-24T12:15:06.808Z,21.07
2018-03-24T12:17:39.311Z,21.10
2018-03-24T12:20:11.724Z,22.10
2018-03-24T12:22:44.301Z,21.90
2018-03-24T12:25:18.595Z,20.13
2018-03-24T12:27:52.044Z,17.40
2018-03-24T12:30:24.489Z,18.50
2018-03-24T12:32:57.674Z,16.90
2018-03-24T12:35:30.853Z,19.93
2018-03-24T12:38:03.400Z,19.53
2018-03-24T12:40:35.853Z,18.17
2018-03-24T12:43:08.575Z,18.73
2018-03-24T12:45:41.101Z,17.73
2018-03-24T12:48:13.466Z,17.70
2018-03-24T12:50:46.084Z,16.97
2018-03-24T12:53:18.779Z,16.67
2018-03-24T12:55:52.211Z,16.70
2018-03-24T12:58:24.834Z,18.23
2018-03-24T13:00:57.454Z,16.57
2018-03-24T13:03:30.295Z,18.27
2018-03-24T13:06:02.883Z,17.67
2018-03-24T13:08:35.486Z,15.97
2018-03-24T13:11:09.023Z,17.87
2018-03-24T13:13:41.715Z,18.10
2018-03-24T13:16:14.492Z,18.97
2018-03-24T13:18:46.907Z,18.77
2018-03-24T13:21:20.970Z,18.70
2018-03-24T13:23:55.001Z,17.13
2018-03-24T13:26:28.311Z,18.43
2018-03-24T13:29:00.849Z,18.27
2018-03-24T13:31:33.505Z,17.20
2018-03-24T13:34:06.086Z,18.47
2018-03-24T13:36:38.648Z,16.67
2018-03-24T13:39:12.468Z,16.93
2018-03-24T13:41:44.950Z,15.13
2018-03-24T13:44:18.091Z,14.00
2018-03-24T13:46:51.383Z,15.63
2018-03-24T13:49:24.121Z,14.83
2018-03-24T13:51:56.535Z,13.80
2018-03-24T13:54:29.114Z,13.90
2018-03-24T13:57:02.774Z,15.10
2018-03-24T13:59:35.980Z,14.57
2018-03-24T14:02:09.914Z,15.10
2018-03-24T14:04:42.286Z,13.97
2018-03-24T14:07:15.788Z,14.43
2018-03-24T14:09:48.408Z,15.47
2018-03-24T14:12:21.050Z,14.83
2018-03-24T14:14:53.659Z,15.03
2018-03-24T14:17:26.264Z,14.23
2018-03-24T14:19:59.640Z,14.07
2018-03-24T14:22:32.470Z,13.37
2018-03-24T14:25:05.025Z,13.50
2018-03-24T14:27:37.843Z,13.37
2018-03-24T14:30:10.376Z,12.87
2018-03-24T14:32:42.809Z,14.03
2018-03-24T14:35:16.178Z,11.77
2018-03-24T14:37:48.905Z,13.20
2018-03-24T14:40:21.733Z,13.23
2018-03-24T14:42:54.210Z,14.00
2018-03-24T14:45:27.005Z,13.83
2018-03-24T14:47:59.596Z,13.87
2018-03-24T14:50:33.480Z,14.13
2018-03-24T14:53:05.837Z,13.33
2018-03-24T14:55:38.498Z,14.43
2018-03-24T14:58:10.936Z,13.27
2018-03-24T15:00:43.496Z,12.77
2018-03-24T15:03:16.043Z,12.33
2018-03-24T15:05:48.565Z,14.63
2018-03-24T15:08:21.019Z,14.60
2018-03-24T15:10:53.501Z,13.47
2018-03-24T15:13:26.261Z,13.80
2018-03-24T15:15:59.804Z,13.10
2018-03-24T15:18:33.130Z,12.17
2018-03-24T15:21:05.632Z,11.93
2018-03-24T15:23:38.163Z,13.33
2018-03-24T15:26:11.371Z,12.43
2018-03-24T15:29:07.967Z,13.63
2018-03-24T15:31:52.910Z,14.17
2018-03-24T15:34:38.029Z,15.30
2018-03-24T15:37:10.643Z,14.53
2018-03-24T15:39:43.211Z,14.63
2018-03-24T15:42:16.490Z,12.90
2018-03-24T15:44:49.032Z,13.38
2018-03-24T15:47:21.465Z,13.30
2018-03-24T15:49:54.323Z,13.57
2018-03-24T15:52:27.426Z,12.77
2018-03-24T15:55:00.739Z,15.05
2018-03-24T15:57:33.857Z,13.40
2018-03-24T16:00:06.404Z,13.00
2018-03-24T16:05:18.179Z,12.77
2018-03-24T16:07:50.668Z,13.80
2018-03-24T16:10:23.323Z,13.80
2018-03-24T16:12:56.516Z,12.13
2018-03-24T16:15:29.155Z,13.65
2018-03-24T16:18:02.487Z,13.50
2018-03-24T16:20:35.059Z,12.43
2018-03-24T16:23:07.649Z,12.65
2018-03-24T16:25:40.168Z,13.95
2018-03-24T16:28:12.717Z,11.38
2018-03-24T16:30:45.386Z,11.60
2018-03-24T16:33:18.202Z,12.07
2018-03-24T16:35:50.786Z,12.80
2018-03-24T16:38:23.405Z,12.52
2018-03-24T16:40:56.609Z,11.07
2018-03-24T16:43:29.167Z,12.25
2018-03-24T16:46:02.188Z,15.07
2018-03-24T16:48:34.809Z,14.60
2018-03-24T16:51:07.631Z,14.30
2018-03-24T16:53:40.244Z,12.37
2018-03-24T16:56:12.844Z,11.40
2018-03-24T16:58:46.484Z,13.87
2018-03-24T17:01:19.727Z,13.20
2018-03-24T17:03:52.636Z,12.73
2018-03-24T17:06:25.392Z,11.30
2018-03-24T17:08:58.735Z,11.77
2018-03-24T17:11:31.390Z,11.37
2018-03-24T17:14:03.997Z,11.43
2018-03-24T17:16:37.175Z,11.03
2018-03-24T17:19:09.574Z,11.30
2018-03-24T17:21:42.462Z,14.43
2018-03-24T17:24:15.066Z,13.27
2018-03-24T17:26:47.649Z,13.83
2018-03-24T17:29:20.350Z,11.67
2018-03-24T17:31:53.969Z,11.67
2018-03-24T17:34:27.284Z,11.97
2018-03-24T17:36:59.764Z,10.70
2018-03-24T17:39:32.455Z,11.20
2018-03-24T17:42:05.120Z,12.30
2018-03-24T17:44:37.611Z,11.50
2018-03-24T17:47:11.127Z,12.13
2018-03-24T17:49:43.595Z,10.90
2018-03-24T17:52:17.206Z,12.13
2018-03-24T17:54:49.767Z,13.20
2018-03-24T17:57:23.126Z,12.13
2018-03-24T17:59:55.773Z,11.43
2018-03-24T18:02:28.135Z,11.63
2018-03-24T18:05:00.770Z,12.00
2018-03-24T18:07:33.461Z,12.30
2018-03-24T18:10:06.746Z,12.93
2018-03-24T18:12:39.398Z,15.07
2018-03-24T18:15:12.197Z,14.00
2018-03-24T18:17:44.694Z,16.93
2018-03-24T18:20:18.552Z,15.17
2018-03-24T18:22:51.661Z,14.33
2018-03-24T18:25:24.187Z,13.93
2018-03-24T18:27:56.798Z,15.03
2018-03-24T18:30:29.448Z,13.03
2018-03-24T18:33:01.907Z,14.10
2018-03-24T18:35:34.543Z,14.37
2018-03-24T18:38:07.805Z,14.33
2018-03-24T18:40:41.012Z,14.13
2018-03-24T18:43:13.650Z,14.37
2018-03-24T18:45:46.344Z,14.10
2018-03-24T18:48:19.866Z,14.60
2018-03-24T18:50:52.497Z,18.17
2018-03-24T18:53:25.581Z,18.70
2018-03-24T18:55:58.926Z,17.60
2018-03-24T18:58:31.549Z,19.90
2018-03-24T19:01:04.234Z,19.27
2018-03-24T19:03:36.674Z,17.37
2018-03-24T19:06:09.802Z,17.87
2018-03-24T19:08:43.931Z,19.30
2018-03-24T19:11:16.581Z,17.63
2018-03-24T19:13:49.208Z,17.47
2018-03-24T19:16:21.700Z,16.60
2018-03-24T19:18:54.946Z,16.83
2018-03-24T19:21:27.453Z,19.13
2018-03-24T19:24:00.752Z,20.13
2018-03-24T19:26:33.120Z,19.50
2018-03-24T19:29:05.589Z,21.53
2018-03-24T19:31:38.406Z,20.67
2018-03-24T19:34:10.890Z,17.33
2018-03-24T19:36:43.595Z,18.50
2018-03-24T19:39:17.008Z,20.43
2018-03-24T19:41:49.744Z,18.97
2018-03-24T19:44:23.261Z,18.17
2018-03-24T19:46:55.870Z,16.50
2018-03-24T19:49:28.456Z,17.67
2018-03-24T19:52:01.693Z,17.87
2018-03-24T19:54:34.326Z,19.03
2018-03-24T19:57:10.600Z,16.77
2018-03-24T19:59:43.439Z,15.97
2018-03-24T20:02:16.607Z,16.77
2018-03-24T20:04:49.700Z,17.47
2018-03-24T20:07:23.034Z,15.80
2018-03-24T20:09:55.789Z,16.73
2018-03-24T20:12:28.401Z,13.80
2018-03-24T20:15:01.166Z,17.47
2018-03-24T20:17:33.740Z,15.03
2018-03-24T20:20:06.937Z,16.17
2018-03-24T20:22:40.894Z,14.83
2018-03-24T20:25:13.351Z,15.90
2018-03-24T20:27:46.059Z,15.20
2018-03-24T20:30:18.947Z,14.97
2018-03-24T20:32:52.156Z,14.27
2018-03-24T20:35:24.746Z,14.53
2018-03-24T20:37:57.437Z,14.50
2018-03-24T20:40:30.642Z,14.77
2018-03-24T20:43:03.254Z,15.67
2018-03-24T20:45:35.989Z,16.53
2018-03-24T20:48:08.521Z,16.43
2018-03-24T20:50:41.013Z,17.83
2018-03-24T20:53:13.603Z,17.70
2018-03-24T20:55:46.317Z,19.13
2018-03-24T20:58:18.803Z,18.40
2018-03-24T21:00:51.571Z,18.10
2018-03-24T21:03:24.739Z,16.07
2018-03-24T21:05:58.055Z,17.83
2018-03-24T21:08:31.380Z,14.87
2018-03-24T21:11:04.071Z,16.77
2018-03-24T21:13:36.606Z,17.13
2018-03-24T21:16:12.523Z,16.13
2018-03-24T21:18:45.040Z,17.73
2018-03-24T21:21:18.478Z,18.83
2018-03-24T21:23:51.750Z,16.57
2018-03-24T21:26:24.361Z,19.57
2018-03-24T21:28:57.807Z,16.40
2018-03-24T21:31:30.396Z,18.80
2018-03-24T21:34:02.947Z,17.60
2018-03-24T21:36:35.652Z,18.03
2018-03-24T21:39:08.331Z,17.97
2018-03-24T21:41:40.970Z,18.87
2018-03-24T21:44:13.725Z,19.03
2018-03-24T21:46:46.176Z,18.37
2018-03-24T21:49:18.687Z,17.20
2018-03-24T21:51:51.347Z,18.40
2018-03-24T21:54:23.892Z,17.43
2018-03-24T21:56:56.451Z,17.27
2018-03-24T21:59:29.753Z,18.40
2018-03-24T22:02:02.241Z,21.07
2018-03-24T22:04:34.842Z,19.37
2018-03-24T22:07:07.342Z,20.93
2018-03-24T22:09:39.929Z,21.53
2018-03-24T22:12:12.495Z,22.97
2018-03-24T22:14:45.585Z,20.77
2018-03-24T22:17:18.862Z,22.40
2018-03-24T22:19:51.257Z,22.47
2018-03-24T22:22:23.758Z,21.50
2018-03-24T22:24:56.121Z,21.83
2018-03-24T22:27:28.565Z,24.27
2018-03-24T22:30:01.121Z,26.20
2018-03-24T22:32:34.381Z,25.13
2018-03-24T22:35:07.552Z,23.37
2018-03-24T22:37:40.712Z,25.83
2018-03-24T22:40:13.116Z,24.13
2018-03-24T22:42:45.880Z,20.70
2018-03-24T22:45:19.221Z,24.23
2018-03-24T22:47:51.619Z,24.47
2018-03-24T22:50:24.158Z,20.03
2018-03-24T22:52:56.711Z,22.70
2018-03-24T22:55:29.476Z,23.03
2018-03-24T22:58:02.100Z,23.57
2018-03-24T23:00:34.777Z,20.23
2018-03-24T23:03:07.431Z,22.90
2018-03-24T23:05:40.008Z,20.17
2018-03-24T23:08:12.698Z,20.67
2018-03-24T23:10:45.235Z,22.10
2018-03-24T23:13:18.750Z,24.43
2018-03-24T23:15:52.505Z,21.33
2018-03-24T23:18:25.688Z,21.17
2018-03-24T23:20:58.070Z,23.43
2018-03-24T23:23:30.552Z,21.60
2018-03-24T23:26:03.925Z,23.13
2018-03-24T23:28:36.624Z,24.30
2018-03-24T23:31:09.079Z,23.73
2018-03-24T23:33:41.569Z,23.97
2018-03-24T23:36:14.040Z,23.90
2018-03-24T23:38:46.681Z,23.77
2018-03-24T23:41:19.461Z,22.67
2018-03-24T23:43:52.045Z,22.53
2018-03-24T23:46:24.647Z,22.93
2018-03-24T23:48:57.441Z,23.37
2018-03-24T23:51:29.892Z,27.53
2018-03-24T23:54:02.746Z,28.27
2018-03-24T23:56:35.487Z,28.07
2018-03-24T23:59:08.096Z,26.50
